sensor_id;sensor_type;location;lat;lon;timestamp;P1;durP1;ratioP1;P2;durP2;ratioP2
22314;SDS011;11325;55.686;37.566;2023-09-19T00:01:46;19.37;;;10.60;;
22314;SDS011;11325;55.686;37.566;2023-09-19T00:04:14;22.80;;;11.05;;
22314;SDS011;11325;55.686;37.566;2023-09-19T00:06:43;19.35;;;10.20;;
22314;SDS011;11325;55.686;37.566;2023-09-19T00:09:12;23.90;;;10.45;;
22314;SDS011;11325;55.686;37.566;2023-09-19T00:11:40;20.12;;;11.12;;
22314;SDS011;11325;55.686;37.566;2023-09-19T00:14:09;24.20;;;10.78;;
22314;SDS011;11325;55.686;37.566;2023-09-19T00:16:50;21.68;;;11.00;;
22314;SDS011;11325;55.686;37.566;2023-09-19T00:19:19;20.95;;;11.40;;
22314;SDS011;11325;55.686;37.566;2023-09-19T00:21:58;26.50;;;12.30;;
22314;SDS011;11325;55.686;37.566;2023-09-19T00:24:26;33.75;;;11.80;;
22314;SDS011;11325;55.686;37.566;2023-09-19T00:27:10;26.07;;;13.53;;
22314;SDS011;11325;55.686;37.566;2023-09-19T00:29:39;22.55;;;12.10;;
22314;SDS011;11325;55.686;37.566;2023-09-19T00:32:09;28.50;;;14.38;;
22314;SDS011;11325;55.686;37.566;2023-09-19T00:34:37;31.80;;;15.45;;
22314;SDS011;11325;55.686;37.566;2023-09-19T00:37:06;28.85;;;14.68;;
22314;SDS011;11325;55.686;37.566;2023-09-19T00:39:34;34.03;;;14.93;;
22314;SDS011;11325;55.686;37.566;2023-09-19T00:42:03;26.80;;;14.47;;
22314;SDS011;11325;55.686;37.566;2023-09-19T00:44:32;28.40;;;14.10;;
22314;SDS011;11325;55.686;37.566;2023-09-19T00:47:02;36.53;;;16.17;;
22314;SDS011;11325;55.686;37.566;2023-09-19T00:49:41;29.60;;;15.43;;
22314;SDS011;11325;55.686;37.566;2023-09-19T00:52:10;31.82;;;16.85;;
22314;SDS011;11325;55.686;37.566;2023-09-19T00:54:40;32.50;;;16.10;;
22314;SDS011;11325;55.686;37.566;2023-09-19T00:57:09;27.80;;;16.23;;
22314;SDS011;11325;55.686;37.566;2023-09-19T00:59:37;31.45;;;17.17;;
22314;SDS011;11325;55.686;37.566;2023-09-19T01:02:23;39.23;;;17.87;;
22314;SDS011;11325;55.686;37.566;2023-09-19T01:04:51;40.23;;;17.15;;
22314;SDS011;11325;55.686;37.566;2023-09-19T01:07:31;34.25;;;17.67;;
22314;SDS011;11325;55.686;37.566;2023-09-19T01:10:03;39.38;;;19.23;;
22314;SDS011;11325;55.686;37.566;2023-09-19T01:32:04;44.20;;;24.05;;
22314;SDS011;11325;55.686;37.566;2023-09-19T01:34:46;44.40;;;25.17;;
22314;SDS011;11325;55.686;37.566;2023-09-19T01:37:16;47.50;;;25.82;;
22314;SDS011;11325;55.686;37.566;2023-09-19T01:39:50;49.67;;;26.45;;
22314;SDS011;11325;55.686;37.566;2023-09-19T01:42:41;52.25;;;26.40;;
22314;SDS011;11325;55.686;37.566;2023-09-19T01:45:14;45.80;;;26.33;;
22314;SDS011;11325;55.686;37.566;2023-09-19T01:47:46;58.33;;;26.80;;
22314;SDS011;11325;55.686;37.566;2023-09-19T01:55:46;42.53;;;25.08;;
22314;SDS011;11325;55.686;37.566;2023-09-19T01:58:26;46.92;;;25.08;;
22314;SDS011;11325;55.686;37.566;2023-09-19T02:00:51;55.75;;;24.30;;
22314;SDS011;11325;55.686;37.566;2023-09-19T02:03:21;41.63;;;24.95;;
22314;SDS011;11325;55.686;37.566;2023-09-19T02:05:51;45.05;;;24.25;;
22314;SDS011;11325;55.686;37.566;2023-09-19T02:08:30;43.90;;;24.80;;
22314;SDS011;11325;55.686;37.566;2023-09-19T02:11:01;47.55;;;23.10;;
22314;SDS011;11325;55.686;37.566;2023-09-19T02:13:30;43.75;;;23.70;;
22314;SDS011;11325;55.686;37.566;2023-09-19T02:15:59;42.75;;;23.07;;
22314;SDS011;11325;55.686;37.566;2023-09-19T02:18:28;42.90;;;22.87;;
22314;SDS011;11325;55.686;37.566;2023-09-19T02:20:58;38.28;;;21.27;;
22314;SDS011;11325;55.686;37.566;2023-09-19T02:23:27;41.00;;;22.15;;
22314;SDS011;11325;55.686;37.566;2023-09-19T02:26:07;37.03;;;20.48;;
22314;SDS011;11325;55.686;37.566;2023-09-19T02:28:36;33.98;;;21.25;;
22314;SDS011;11325;55.686;37.566;2023-09-19T02:31:16;36.98;;;20.48;;
22314;SDS011;11325;55.686;37.566;2023-09-19T02:33:55;38.70;;;21.17;;
22314;SDS011;11325;55.686;37.566;2023-09-19T02:36:24;38.80;;;20.52;;
22314;SDS011;11325;55.686;37.566;2023-09-19T02:38:52;42.08;;;21.45;;
22314;SDS011;11325;55.686;37.566;2023-09-19T02:41:21;34.25;;;19.55;;
22314;SDS011;11325;55.686;37.566;2023-09-19T02:44:00;41.20;;;20.08;;
22314;SDS011;11325;55.686;37.566;2023-09-19T02:46:30;40.15;;;20.25;;
22314;SDS011;11325;55.686;37.566;2023-09-19T02:49:08;37.93;;;19.70;;
22314;SDS011;11325;55.686;37.566;2023-09-19T02:51:37;36.63;;;19.75;;
22314;SDS011;11325;55.686;37.566;2023-09-19T02:54:06;40.30;;;20.90;;
22314;SDS011;11325;55.686;37.566;2023-09-19T02:56:35;38.73;;;19.15;;
22314;SDS011;11325;55.686;37.566;2023-09-19T02:59:04;32.95;;;19.85;;
22314;SDS011;11325;55.686;37.566;2023-09-19T03:01:43;36.45;;;19.60;;
22314;SDS011;11325;55.686;37.566;2023-09-19T03:04:14;42.03;;;19.85;;
22314;SDS011;11325;55.686;37.566;2023-09-19T03:06:55;37.63;;;19.73;;
22314;SDS011;11325;55.686;37.566;2023-09-19T03:09:35;42.43;;;20.25;;
22314;SDS011;11325;55.686;37.566;2023-09-19T03:12:04;35.20;;;18.65;;
22314;SDS011;11325;55.686;37.566;2023-09-19T03:14:33;35.88;;;18.82;;
22314;SDS011;11325;55.686;37.566;2023-09-19T03:17:03;41.33;;;20.20;;
22314;SDS011;11325;55.686;37.566;2023-09-19T03:19:45;39.00;;;20.27;;
22314;SDS011;11325;55.686;37.566;2023-09-19T03:22:15;42.35;;;20.72;;
22314;SDS011;11325;55.686;37.566;2023-09-19T03:24:45;37.33;;;20.05;;
22314;SDS011;11325;55.686;37.566;2023-09-19T03:27:13;31.20;;;18.32;;
22314;SDS011;11325;55.686;37.566;2023-09-19T03:29:43;40.70;;;19.10;;
22314;SDS011;11325;55.686;37.566;2023-09-19T03:32:24;42.10;;;20.05;;
22314;SDS011;11325;55.686;37.566;2023-09-19T03:34:52;38.33;;;20.75;;
22314;SDS011;11325;55.686;37.566;2023-09-19T03:37:31;40.25;;;20.57;;
22314;SDS011;11325;55.686;37.566;2023-09-19T03:40:00;40.88;;;20.48;;
22314;SDS011;11325;55.686;37.566;2023-09-19T03:42:40;40.48;;;20.25;;
22314;SDS011;11325;55.686;37.566;2023-09-19T03:45:19;41.65;;;21.48;;
22314;SDS011;11325;55.686;37.566;2023-09-19T03:47:48;39.55;;;19.17;;
22314;SDS011;11325;55.686;37.566;2023-09-19T03:50:17;35.33;;;19.48;;
22314;SDS011;11325;55.686;37.566;2023-09-19T03:52:57;39.23;;;20.27;;
22314;SDS011;11325;55.686;37.566;2023-09-19T03:55:25;41.42;;;20.15;;
22314;SDS011;11325;55.686;37.566;2023-09-19T03:57:54;43.80;;;19.23;;
22314;SDS011;11325;55.686;37.566;2023-09-19T04:00:23;37.53;;;21.07;;
22314;SDS011;11325;55.686;37.566;2023-09-19T04:02:53;35.65;;;20.40;;
22314;SDS011;11325;55.686;37.566;2023-09-19T04:05:33;42.00;;;21.12;;
22314;SDS011;11325;55.686;37.566;2023-09-19T04:08:02;43.05;;;22.10;;
22314;SDS011;11325;55.686;37.566;2023-09-19T04:10:47;37.38;;;21.33;;
22314;SDS011;11325;55.686;37.566;2023-09-19T04:13:16;38.38;;;20.45;;
22314;SDS011;11325;55.686;37.566;2023-09-19T04:15:45;42.27;;;21.85;;
22314;SDS011;11325;55.686;37.566;2023-09-19T04:18:14;41.28;;;21.00;;
22314;SDS011;11325;55.686;37.566;2023-09-19T04:20:47;40.90;;;20.85;;
22314;SDS011;11325;55.686;37.566;2023-09-19T04:23:24;37.03;;;20.60;;
22314;SDS011;11325;55.686;37.566;2023-09-19T04:25:54;41.75;;;22.35;;
22314;SDS011;11325;55.686;37.566;2023-09-19T04:28:23;44.25;;;20.90;;
22314;SDS011;11325;55.686;37.566;2023-09-19T04:30:53;39.20;;;20.12;;
22314;SDS011;11325;55.686;37.566;2023-09-19T04:33:40;35.52;;;19.87;;
22314;SDS011;11325;55.686;37.566;2023-09-19T04:36:11;41.63;;;21.52;;
22314;SDS011;11325;55.686;37.566;2023-09-19T04:38:41;38.63;;;19.98;;
22314;SDS011;11325;55.686;37.566;2023-09-19T04:41:10;41.23;;;20.05;;
22314;SDS011;11325;55.686;37.566;2023-09-19T04:43:50;35.08;;;18.45;;
22314;SDS011;11325;55.686;37.566;2023-09-19T04:46:19;33.00;;;19.35;;
22314;SDS011;11325;55.686;37.566;2023-09-19T04:48:59;35.05;;;18.23;;
22314;SDS011;11325;55.686;37.566;2023-09-19T04:51:29;34.03;;;18.40;;
22314;SDS011;11325;55.686;37.566;2023-09-19T04:54:09;38.25;;;19.17;;
22314;SDS011;11325;55.686;37.566;2023-09-19T04:56:39;31.45;;;18.10;;
22314;SDS011;11325;55.686;37.566;2023-09-19T04:59:08;36.35;;;18.48;;
22314;SDS011;11325;55.686;37.566;2023-09-19T05:01:38;30.72;;;17.20;;
22314;SDS011;11325;55.686;37.566;2023-09-19T05:04:17;33.35;;;17.60;;
22314;SDS011;11325;55.686;37.566;2023-09-19T05:06:46;34.67;;;16.37;;
22314;SDS011;11325;55.686;37.566;2023-09-19T05:09:15;26.93;;;16.25;;
22314;SDS011;11325;55.686;37.566;2023-09-19T05:11:55;25.35;;;14.87;;
22314;SDS011;11325;55.686;37.566;2023-09-19T05:14:24;31.20;;;15.05;;
22314;SDS011;11325;55.686;37.566;2023-09-19T05:16:53;28.27;;;16.15;;
22314;SDS011;11325;55.686;37.566;2023-09-19T05:19:33;30.35;;;16.52;;
22314;SDS011;11325;55.686;37.566;2023-09-19T05:22:02;35.65;;;16.40;;
22314;SDS011;11325;55.686;37.566;2023-09-19T05:24:31;27.27;;;14.93;;
22314;SDS011;11325;55.686;37.566;2023-09-19T05:27:02;30.25;;;16.17;;
22314;SDS011;11325;55.686;37.566;2023-09-19T05:29:43;28.92;;;14.68;;
22314;SDS011;11325;55.686;37.566;2023-09-19T05:32:12;26.52;;;14.05;;
22314;SDS011;11325;55.686;37.566;2023-09-19T05:34:40;27.82;;;13.98;;
22314;SDS011;11325;55.686;37.566;2023-09-19T05:37:09;29.52;;;14.15;;
22314;SDS011;11325;55.686;37.566;2023-09-19T05:39:39;33.80;;;14.78;;
22314;SDS011;11325;55.686;37.566;2023-09-19T05:42:19;24.87;;;13.95;;
22314;SDS011;11325;55.686;37.566;2023-09-19T05:44:48;25.62;;;13.08;;
22314;SDS011;11325;55.686;37.566;2023-09-19T05:47:27;27.98;;;14.20;;
22314;SDS011;11325;55.686;37.566;2023-09-19T05:49:56;25.27;;;12.93;;
22314;SDS011;11325;55.686;37.566;2023-09-19T05:52:37;21.00;;;11.85;;
22314;SDS011;11325;55.686;37.566;2023-09-19T05:55:06;28.67;;;14.33;;
22314;SDS011;11325;55.686;37.566;2023-09-19T05:57:49;35.43;;;13.95;;
22314;SDS011;11325;55.686;37.566;2023-09-19T06:00:25;26.77;;;13.72;;
22314;SDS011;11325;55.686;37.566;2023-09-19T06:03:05;23.45;;;14.43;;
22314;SDS011;11325;55.686;37.566;2023-09-19T06:05:34;27.45;;;14.20;;
22314;SDS011;11325;55.686;37.566;2023-09-19T06:08:12;24.07;;;12.78;;
22314;SDS011;11325;55.686;37.566;2023-09-19T06:10:41;23.62;;;12.80;;
22314;SDS011;11325;55.686;37.566;2023-09-19T06:13:20;30.25;;;14.03;;
22314;SDS011;11325;55.686;37.566;2023-09-19T06:15:49;34.20;;;13.22;;
22314;SDS011;11325;55.686;37.566;2023-09-19T06:18:18;22.70;;;12.50;;
22314;SDS011;11325;55.686;37.566;2023-09-19T06:21:01;29.85;;;13.75;;
22314;SDS011;11325;55.686;37.566;2023-09-19T06:23:41;25.35;;;12.98;;
22314;SDS011;11325;55.686;37.566;2023-09-19T06:26:10;25.88;;;13.80;;
22314;SDS011;11325;55.686;37.566;2023-09-19T06:28:51;24.82;;;14.00;;
22314;SDS011;11325;55.686;37.566;2023-09-19T06:31:20;26.52;;;13.25;;
22314;SDS011;11325;55.686;37.566;2023-09-19T06:33:52;29.92;;;13.40;;
22314;SDS011;11325;55.686;37.566;2023-09-19T06:36:31;23.15;;;14.13;;
22314;SDS011;11325;55.686;37.566;2023-09-19T06:39:00;26.70;;;13.62;;
22314;SDS011;11325;55.686;37.566;2023-09-19T06:41:39;29.50;;;14.58;;
22314;SDS011;11325;55.686;37.566;2023-09-19T06:44:09;25.17;;;14.38;;
22314;SDS011;11325;55.686;37.566;2023-09-19T06:46:38;30.37;;;14.30;;
22314;SDS011;11325;55.686;37.566;2023-09-19T06:49:18;28.73;;;14.80;;
22314;SDS011;11325;55.686;37.566;2023-09-19T06:51:47;29.42;;;14.85;;
22314;SDS011;11325;55.686;37.566;2023-09-19T06:54:16;23.67;;;14.25;;
22314;SDS011;11325;55.686;37.566;2023-09-19T06:56:45;25.90;;;14.10;;
22314;SDS011;11325;55.686;37.566;2023-09-19T06:59:23;25.97;;;14.50;;
22314;SDS011;11325;55.686;37.566;2023-09-19T07:01:52;32.42;;;16.23;;
22314;SDS011;11325;55.686;37.566;2023-09-19T07:04:20;27.00;;;16.37;;
22314;SDS011;11325;55.686;37.566;2023-09-19T07:06:50;28.65;;;15.35;;
22314;SDS011;11325;55.686;37.566;2023-09-19T07:09:29;30.45;;;15.10;;
22314;SDS011;11325;55.686;37.566;2023-09-19T07:11:58;30.92;;;16.27;;
22314;SDS011;11325;55.686;37.566;2023-09-19T07:14:38;24.35;;;15.20;;
22314;SDS011;11325;55.686;37.566;2023-09-19T07:17:06;23.83;;;14.23;;
22314;SDS011;11325;55.686;37.566;2023-09-19T07:19:45;26.33;;;15.78;;
22314;SDS011;11325;55.686;37.566;2023-09-19T07:22:16;28.52;;;15.78;;
22314;SDS011;11325;55.686;37.566;2023-09-19T07:24:54;28.30;;;14.58;;
22314;SDS011;11325;55.686;37.566;2023-09-19T07:27:23;27.80;;;15.83;;
22314;SDS011;11325;55.686;37.566;2023-09-19T07:29:52;34.03;;;16.05;;
22314;SDS011;11325;55.686;37.566;2023-09-19T07:32:32;25.57;;;14.58;;
22314;SDS011;11325;55.686;37.566;2023-09-19T07:35:13;27.30;;;15.40;;
22314;SDS011;11325;55.686;37.566;2023-09-19T07:37:42;25.25;;;15.15;;
22314;SDS011;11325;55.686;37.566;2023-09-19T07:40:20;32.03;;;15.88;;
22314;SDS011;11325;55.686;37.566;2023-09-19T07:42:51;26.48;;;15.53;;
22314;SDS011;11325;55.686;37.566;2023-09-19T07:45:20;30.92;;;17.57;;
22314;SDS011;11325;55.686;37.566;2023-09-19T07:48:05;30.25;;;17.23;;
22314;SDS011;11325;55.686;37.566;2023-09-19T07:50:34;27.62;;;17.32;;
22314;SDS011;11325;55.686;37.566;2023-09-19T07:53:16;29.25;;;17.07;;
22314;SDS011;11325;55.686;37.566;2023-09-19T07:55:45;30.82;;;16.37;;
22314;SDS011;11325;55.686;37.566;2023-09-19T07:58:26;29.18;;;15.80;;
22314;SDS011;11325;55.686;37.566;2023-09-19T08:00:54;26.27;;;15.32;;
22314;SDS011;11325;55.686;37.566;2023-09-19T08:03:34;39.78;;;15.80;;
22314;SDS011;11325;55.686;37.566;2023-09-19T08:06:04;33.98;;;15.35;;
22314;SDS011;11325;55.686;37.566;2023-09-19T08:08:42;23.95;;;14.90;;
22314;SDS011;11325;55.686;37.566;2023-09-19T08:11:22;29.30;;;16.60;;
22314;SDS011;11325;55.686;37.566;2023-09-19T08:13:52;28.60;;;15.00;;
22314;SDS011;11325;55.686;37.566;2023-09-19T08:16:31;29.25;;;15.30;;
22314;SDS011;11325;55.686;37.566;2023-09-19T08:18:59;28.67;;;14.80;;
22314;SDS011;11325;55.686;37.566;2023-09-19T08:21:39;24.65;;;15.48;;
22314;SDS011;11325;55.686;37.566;2023-09-19T08:24:07;28.23;;;15.15;;
22314;SDS011;11325;55.686;37.566;2023-09-19T08:26:46;27.70;;;15.28;;
22314;SDS011;11325;55.686;37.566;2023-09-19T08:29:16;27.87;;;15.08;;
22314;SDS011;11325;55.686;37.566;2023-09-19T08:31:55;28.73;;;15.83;;
22314;SDS011;11325;55.686;37.566;2023-09-19T08:34:24;29.92;;;14.83;;
22314;SDS011;11325;55.686;37.566;2023-09-19T08:36:53;32.55;;;16.67;;
22314;SDS011;11325;55.686;37.566;2023-09-19T08:39:35;24.02;;;14.15;;
22314;SDS011;11325;55.686;37.566;2023-09-19T08:42:05;28.20;;;16.05;;
22314;SDS011;11325;55.686;37.566;2023-09-19T08:44:46;28.15;;;15.48;;
22314;SDS011;11325;55.686;37.566;2023-09-19T08:47:15;31.48;;;15.78;;
22314;SDS011;11325;55.686;37.566;2023-09-19T08:52:44;33.80;;;15.18;;
22314;SDS011;11325;55.686;37.566;2023-09-19T08:55:14;30.77;;;15.70;;
22314;SDS011;11325;55.686;37.566;2023-09-19T08:57:59;30.35;;;14.95;;
22314;SDS011;11325;55.686;37.566;2023-09-19T09:00:26;23.55;;;14.98;;
22314;SDS011;11325;55.686;37.566;2023-09-19T09:03:06;32.50;;;14.85;;
22314;SDS011;11325;55.686;37.566;2023-09-19T09:05:46;35.17;;;16.70;;
22314;SDS011;11325;55.686;37.566;2023-09-19T09:08:25;31.77;;;16.52;;
22314;SDS011;11325;55.686;37.566;2023-09-19T09:10:53;36.05;;;16.80;;
22314;SDS011;11325;55.686;37.566;2023-09-19T09:13:34;37.90;;;16.32;;
22314;SDS011;11325;55.686;37.566;2023-09-19T09:16:03;25.75;;;15.60;;
22314;SDS011;11325;55.686;37.566;2023-09-19T09:18:41;31.12;;;16.82;;
22314;SDS011;11325;55.686;37.566;2023-09-19T09:21:12;30.55;;;16.80;;
22314;SDS011;11325;55.686;37.566;2023-09-19T09:23:52;30.68;;;16.62;;
22314;SDS011;11325;55.686;37.566;2023-09-19T09:29:23;42.50;;;17.80;;
22314;SDS011;11325;55.686;37.566;2023-09-19T09:31:59;40.20;;;17.17;;
22314;SDS011;11325;55.686;37.566;2023-09-19T09:34:32;39.92;;;16.55;;
22314;SDS011;11325;55.686;37.566;2023-09-19T09:37:15;31.33;;;16.37;;
22314;SDS011;11325;55.686;37.566;2023-09-19T09:39:50;27.32;;;16.50;;
22314;SDS011;11325;55.686;37.566;2023-09-19T09:42:35;30.68;;;16.10;;
22314;SDS011;11325;55.686;37.566;2023-09-19T09:45:15;36.13;;;17.20;;
22314;SDS011;11325;55.686;37.566;2023-09-19T09:47:55;32.10;;;16.07;;
22314;SDS011;11325;55.686;37.566;2023-09-19T09:53:19;27.22;;;16.70;;
22314;SDS011;11325;55.686;37.566;2023-09-19T09:56:05;32.38;;;15.98;;
22314;SDS011;11325;55.686;37.566;2023-09-19T10:01:45;30.00;;;16.67;;
22314;SDS011;11325;55.686;37.566;2023-09-19T10:04:10;27.17;;;15.48;;
22314;SDS011;11325;55.686;37.566;2023-09-19T10:06:41;31.57;;;17.02;;
22314;SDS011;11325;55.686;37.566;2023-09-19T10:09:22;31.15;;;15.75;;
22314;SDS011;11325;55.686;37.566;2023-09-19T10:12:08;32.08;;;16.82;;
22314;SDS011;11325;55.686;37.566;2023-09-19T10:14:38;44.58;;;16.95;;
22314;SDS011;11325;55.686;37.566;2023-09-19T10:17:20;28.35;;;16.32;;
22314;SDS011;11325;55.686;37.566;2023-09-19T10:20:00;29.20;;;15.05;;
22314;SDS011;11325;55.686;37.566;2023-09-19T10:22:32;28.38;;;15.35;;
22314;SDS011;11325;55.686;37.566;2023-09-19T10:25:13;25.32;;;14.75;;
22314;SDS011;11325;55.686;37.566;2023-09-19T10:27:41;29.95;;;14.68;;
22314;SDS011;11325;55.686;37.566;2023-09-19T10:30:22;28.45;;;15.15;;
22314;SDS011;11325;55.686;37.566;2023-09-19T10:32:56;24.02;;;14.98;;
22314;SDS011;11325;55.686;37.566;2023-09-19T10:35:21;28.92;;;15.78;;
22314;SDS011;11325;55.686;37.566;2023-09-19T10:37:51;27.45;;;15.43;;
22314;SDS011;11325;55.686;37.566;2023-09-19T10:40:32;29.80;;;15.23;;
22314;SDS011;11325;55.686;37.566;2023-09-19T10:43:15;31.05;;;13.48;;
22314;SDS011;11325;55.686;37.566;2023-09-19T10:45:41;23.85;;;14.68;;
22314;SDS011;11325;55.686;37.566;2023-09-19T10:48:12;26.97;;;16.62;;
22314;SDS011;11325;55.686;37.566;2023-09-19T10:50:58;27.82;;;14.50;;
22314;SDS011;11325;55.686;37.566;2023-09-19T10:53:28;27.87;;;14.53;;
22314;SDS011;11325;55.686;37.566;2023-09-19T10:55:59;21.75;;;13.18;;
22314;SDS011;11325;55.686;37.566;2023-09-19T10:58:38;27.70;;;13.83;;
22314;SDS011;11325;55.686;37.566;2023-09-19T11:01:19;29.85;;;14.18;;
22314;SDS011;11325;55.686;37.566;2023-09-19T11:04:23;38.55;;;14.13;;
22314;SDS011;11325;55.686;37.566;2023-09-19T11:07:05;24.27;;;13.72;;
22314;SDS011;11325;55.686;37.566;2023-09-19T11:09:51;24.82;;;14.05;;
22314;SDS011;11325;55.686;37.566;2023-09-19T11:18:01;30.40;;;12.55;;
22314;SDS011;11325;55.686;37.566;2023-09-19T11:20:42;29.37;;;14.45;;
22314;SDS011;11325;55.686;37.566;2023-09-19T11:23:16;25.20;;;14.00;;
22314;SDS011;11325;55.686;37.566;2023-09-19T11:25:54;26.25;;;13.28;;
22314;SDS011;11325;55.686;37.566;2023-09-19T11:30:54;26.17;;;12.07;;
22314;SDS011;11325;55.686;37.566;2023-09-19T11:33:34;21.20;;;11.95;;
22314;SDS011;11325;55.686;37.566;2023-09-19T11:36:15;23.77;;;13.13;;
22314;SDS011;11325;55.686;37.566;2023-09-19T11:41:36;24.07;;;12.05;;
22314;SDS011;11325;55.686;37.566;2023-09-19T11:49:26;20.45;;;12.50;;
22314;SDS011;11325;55.686;37.566;2023-09-19T11:52:08;18.50;;;10.82;;
22314;SDS011;11325;55.686;37.566;2023-09-19T11:54:37;21.00;;;11.20;;
22314;SDS011;11325;55.686;37.566;2023-09-19T11:57:08;23.75;;;11.90;;
22314;SDS011;11325;55.686;37.566;2023-09-19T11:59:49;27.07;;;11.15;;
22314;SDS011;11325;55.686;37.566;2023-09-19T12:02:27;22.17;;;12.03;;
22314;SDS011;11325;55.686;37.566;2023-09-19T12:04:53;26.93;;;11.40;;
22314;SDS011;11325;55.686;37.566;2023-09-19T12:07:29;18.52;;;11.38;;
22314;SDS011;11325;55.686;37.566;2023-09-19T12:10:09;19.75;;;11.10;;
22314;SDS011;11325;55.686;37.566;2023-09-19T12:12:41;19.50;;;11.48;;
22314;SDS011;11325;55.686;37.566;2023-09-19T12:15:27;21.65;;;10.18;;
22314;SDS011;11325;55.686;37.566;2023-09-19T12:18:08;18.62;;;10.15;;
22314;SDS011;11325;55.686;37.566;2023-09-19T12:20:43;17.00;;;10.60;;
22314;SDS011;11325;55.686;37.566;2023-09-19T12:23:24;17.62;;;9.18;;
22314;SDS011;11325;55.686;37.566;2023-09-19T12:26:03;16.15;;;9.85;;
22314;SDS011;11325;55.686;37.566;2023-09-19T12:28:49;17.57;;;10.60;;
22314;SDS011;11325;55.686;37.566;2023-09-19T12:31:30;21.80;;;10.43;;
22314;SDS011;11325;55.686;37.566;2023-09-19T12:34:09;16.93;;;9.45;;
22314;SDS011;11325;55.686;37.566;2023-09-19T12:37:02;18.37;;;9.98;;
22314;SDS011;11325;55.686;37.566;2023-09-19T12:39:30;21.02;;;9.58;;
22314;SDS011;11325;55.686;37.566;2023-09-19T12:41:59;17.57;;;9.13;;
22314;SDS011;11325;55.686;37.566;2023-09-19T12:44:29;16.57;;;10.25;;
22314;SDS011;11325;55.686;37.566;2023-09-19T12:47:12;18.12;;;9.40;;
22314;SDS011;11325;55.686;37.566;2023-09-19T12:52:39;12.10;;;8.43;;
22314;SDS011;11325;55.686;37.566;2023-09-19T12:55:19;12.93;;;8.40;;
22314;SDS011;11325;55.686;37.566;2023-09-19T12:57:59;17.30;;;7.92;;
22314;SDS011;11325;55.686;37.566;2023-09-19T13:00:39;15.85;;;8.93;;
22314;SDS011;11325;55.686;37.566;2023-09-19T13:08:29;17.40;;;8.35;;
22314;SDS011;11325;55.686;37.566;2023-09-19T13:11:03;13.18;;;7.72;;
22314;SDS011;11325;55.686;37.566;2023-09-19T13:13:47;15.18;;;7.47;;
22314;SDS011;11325;55.686;37.566;2023-09-19T13:16:22;8.45;;;6.62;;
22314;SDS011;11325;55.686;37.566;2023-09-19T13:19:03;14.80;;;6.35;;
22314;SDS011;11325;55.686;37.566;2023-09-19T13:21:33;10.08;;;5.97;;
22314;SDS011;11325;55.686;37.566;2023-09-19T13:24:24;13.48;;;6.25;;
22314;SDS011;11325;55.686;37.566;2023-09-19T13:27:04;9.95;;;6.67;;
22314;SDS011;11325;55.686;37.566;2023-09-19T13:29:43;13.88;;;7.10;;
22314;SDS011;11325;55.686;37.566;2023-09-19T13:32:12;10.80;;;6.87;;
22314;SDS011;11325;55.686;37.566;2023-09-19T13:34:53;15.32;;;7.12;;
22314;SDS011;11325;55.686;37.566;2023-09-19T13:37:38;19.23;;;8.78;;
22314;SDS011;11325;55.686;37.566;2023-09-19T13:40:11;12.88;;;8.00;;
22314;SDS011;11325;55.686;37.566;2023-09-19T13:42:50;12.35;;;8.35;;
22314;SDS011;11325;55.686;37.566;2023-09-19T13:45:36;16.12;;;7.65;;
22314;SDS011;11325;55.686;37.566;2023-09-19T13:48:06;16.00;;;8.73;;
22314;SDS011;11325;55.686;37.566;2023-09-19T13:50:35;12.25;;;8.45;;
22314;SDS011;11325;55.686;37.566;2023-09-19T13:53:04;21.17;;;9.13;;
22314;SDS011;11325;55.686;37.566;2023-09-19T13:55:34;16.60;;;9.20;;
22314;SDS011;11325;55.686;37.566;2023-09-19T13:58:14;14.25;;;9.10;;
22314;SDS011;11325;55.686;37.566;2023-09-19T14:00:43;14.55;;;8.80;;
22314;SDS011;11325;55.686;37.566;2023-09-19T14:03:12;17.32;;;9.65;;
22314;SDS011;11325;55.686;37.566;2023-09-19T14:05:50;17.02;;;8.68;;
22314;SDS011;11325;55.686;37.566;2023-09-19T14:08:29;21.82;;;8.98;;
22314;SDS011;11325;55.686;37.566;2023-09-19T14:10:58;15.13;;;8.75;;
22314;SDS011;11325;55.686;37.566;2023-09-19T14:13:37;18.02;;;9.73;;
22314;SDS011;11325;55.686;37.566;2023-09-19T14:16:06;16.85;;;9.38;;
22314;SDS011;11325;55.686;37.566;2023-09-19T14:18:36;16.52;;;9.45;;
22314;SDS011;11325;55.686;37.566;2023-09-19T14:21:17;15.60;;;9.45;;
22314;SDS011;11325;55.686;37.566;2023-09-19T14:23:46;16.25;;;9.55;;
22314;SDS011;11325;55.686;37.566;2023-09-19T14:26:27;18.73;;;10.05;;
22314;SDS011;11325;55.686;37.566;2023-09-19T14:28:56;23.38;;;9.73;;
22314;SDS011;11325;55.686;37.566;2023-09-19T14:31:25;21.57;;;10.40;;
22314;SDS011;11325;55.686;37.566;2023-09-19T14:34:05;20.97;;;10.63;;
22314;SDS011;11325;55.686;37.566;2023-09-19T14:36:34;21.10;;;10.70;;
22314;SDS011;11325;55.686;37.566;2023-09-19T14:39:13;24.02;;;9.85;;
22314;SDS011;11325;55.686;37.566;2023-09-19T14:41:41;16.60;;;11.20;;
22314;SDS011;11325;55.686;37.566;2023-09-19T14:44:10;19.02;;;10.05;;
22314;SDS011;11325;55.686;37.566;2023-09-19T14:46:49;15.40;;;9.35;;
22314;SDS011;11325;55.686;37.566;2023-09-19T14:49:17;23.55;;;9.63;;
22314;SDS011;11325;55.686;37.566;2023-09-19T14:51:57;19.82;;;10.18;;
22314;SDS011;11325;55.686;37.566;2023-09-19T14:54:28;13.50;;;8.88;;
22314;SDS011;11325;55.686;37.566;2023-09-19T14:56:56;18.00;;;8.98;;
22314;SDS011;11325;55.686;37.566;2023-09-19T14:59:38;12.45;;;8.53;;
22314;SDS011;11325;55.686;37.566;2023-09-19T15:02:06;16.93;;;9.10;;
22314;SDS011;11325;55.686;37.566;2023-09-19T15:04:35;25.25;;;9.53;;
22314;SDS011;11325;55.686;37.566;2023-09-19T15:07:16;20.23;;;8.90;;
22314;SDS011;11325;55.686;37.566;2023-09-19T15:09:45;16.37;;;8.45;;
22314;SDS011;11325;55.686;37.566;2023-09-19T15:12:26;15.05;;;8.00;;
22314;SDS011;11325;55.686;37.566;2023-09-19T15:14:54;15.90;;;8.50;;
22314;SDS011;11325;55.686;37.566;2023-09-19T15:17:40;17.37;;;8.23;;
22314;SDS011;11325;55.686;37.566;2023-09-19T15:20:09;16.67;;;8.23;;
22314;SDS011;11325;55.686;37.566;2023-09-19T15:22:40;16.80;;;7.67;;
22314;SDS011;11325;55.686;37.566;2023-09-19T15:25:09;16.80;;;8.48;;
22314;SDS011;11325;55.686;37.566;2023-09-19T15:27:48;26.77;;;9.30;;
22314;SDS011;11325;55.686;37.566;2023-09-19T15:30:18;20.70;;;8.30;;
22314;SDS011;11325;55.686;37.566;2023-09-19T15:32:46;14.25;;;7.83;;
22314;SDS011;11325;55.686;37.566;2023-09-19T15:35:16;14.03;;;8.80;;
22314;SDS011;11325;55.686;37.566;2023-09-19T15:37:56;19.37;;;8.18;;
22314;SDS011;11325;55.686;37.566;2023-09-19T15:40:26;22.65;;;8.25;;
22314;SDS011;11325;55.686;37.566;2023-09-19T15:42:56;16.05;;;7.78;;
22314;SDS011;11325;55.686;37.566;2023-09-19T15:45:24;23.02;;;8.88;;
22314;SDS011;11325;55.686;37.566;2023-09-19T15:47:55;15.98;;;7.12;;
22314;SDS011;11325;55.686;37.566;2023-09-19T15:50:23;16.87;;;7.53;;
22314;SDS011;11325;55.686;37.566;2023-09-19T15:53:03;23.10;;;8.33;;